createdAt,value
2022-09-17T00:00:34.070Z,982.63
2022-09-17T00:01:34.149Z,982.59
2022-09-17T00:02:34.188Z,982.60
2022-09-17T00:03:34.020Z,982.52
2022-09-17T00:04:34.141Z,982.60
2022-09-17T00:05:33.977Z,982.57
2022-09-17T00:06:33.979Z,982.60
2022-09-17T00:07:33.991Z,982.54
2022-09-17T00:08:33.998Z,982.49
2022-09-17T00:09:33.960Z,982.49
2022-09-17T00:10:33.980Z,982.44
2022-09-17T00:11:33.943Z,982.52
2022-09-17T00:12:34.003Z,982.45
2022-09-17T00:13:33.930Z,982.58
2022-09-17T00:14:33.962Z,982.49
2022-09-17T00:15:33.901Z,982.53
2022-09-17T00:16:33.973Z,982.57
2022-09-17T00:17:33.888Z,982.56
2022-09-17T00:18:33.879Z,982.59
2022-09-17T00:19:33.884Z,982.56
2022-09-17T00:20:34.177Z,982.54
2022-09-17T00:21:34.105Z,982.68
2022-09-17T00:22:34.558Z,982.61
2022-09-17T00:23:33.845Z,982.61
2022-09-17T00:24:33.831Z,982.62
2022-09-17T00:25:33.811Z,982.58
2022-09-17T00:26:33.830Z,982.62
2022-09-17T00:27:33.872Z,982.64
2022-09-17T00:28:34.063Z,982.63
2022-09-17T00:29:33.872Z,982.58
2022-09-17T00:30:34.142Z,982.59
2022-09-17T00:31:33.830Z,982.62
2022-09-17T00:32:33.774Z,982.62
2022-09-17T00:33:33.767Z,982.65
2022-09-17T00:34:33.747Z,982.69
2022-09-17T00:35:33.737Z,982.64
2022-09-17T00:36:33.843Z,982.69
2022-09-17T00:37:33.783Z,982.64
2022-09-17T00:38:33.712Z,982.62
2022-09-17T00:39:33.759Z,982.63
2022-09-17T00:40:33.793Z,982.62
2022-09-17T00:41:33.682Z,982.61
2022-09-17T00:42:33.645Z,982.65
2022-09-17T00:43:33.669Z,982.65
2022-09-17T00:44:33.638Z,982.64
2022-09-17T00:45:33.682Z,982.67
2022-09-17T00:46:33.697Z,982.70
2022-09-17T00:47:33.639Z,982.74
2022-09-17T00:48:33.612Z,982.74
2022-09-17T00:49:33.599Z,982.78
2022-09-17T00:50:33.595Z,982.75
2022-09-17T00:51:33.589Z,982.80
2022-09-17T00:52:33.771Z,982.78
2022-09-17T00:53:33.585Z,982.77
2022-09-17T00:54:33.549Z,982.72
2022-09-17T00:55:33.551Z,982.75
2022-09-17T00:56:33.528Z,982.74
2022-09-17T00:57:33.524Z,982.74
2022-09-17T00:58:35.842Z,982.72
2022-09-17T00:59:33.531Z,982.73
2022-09-17T01:00:33.590Z,982.69
2022-09-17T01:01:33.493Z,982.67
2022-09-17T01:02:33.509Z,982.66
2022-09-17T01:03:33.471Z,982.69
2022-09-17T01:04:33.477Z,982.71
2022-09-17T01:05:33.468Z,982.68
2022-09-17T01:06:33.475Z,982.74
2022-09-17T01:07:33.442Z,982.70
2022-09-17T01:08:33.547Z,982.71
2022-09-17T01:09:33.413Z,982.69
2022-09-17T01:10:33.417Z,982.68
2022-09-17T01:11:33.441Z,982.76
2022-09-17T01:12:33.385Z,982.74
2022-09-17T01:13:33.518Z,982.76
2022-09-17T01:14:33.361Z,982.79
2022-09-17T01:15:33.408Z,982.73
2022-09-17T01:16:33.428Z,982.75
2022-09-17T01:17:33.371Z,982.69
2022-09-17T01:18:33.482Z,982.75
2022-09-17T01:19:33.360Z,982.74
2022-09-17T01:20:33.323Z,982.76
2022-09-17T01:21:33.303Z,982.74
2022-09-17T01:22:33.316Z,982.74
2022-09-17T01:23:33.333Z,982.73
2022-09-17T01:24:33.399Z,982.76
2022-09-17T01:25:33.301Z,982.74
2022-09-17T01:26:33.279Z,982.71
2022-09-17T01:27:33.258Z,982.69
2022-09-17T01:28:33.251Z,982.65
2022-09-17T01:29:33.252Z,982.66
2022-09-17T01:30:33.395Z,982.68
2022-09-17T01:31:33.324Z,982.68
2022-09-17T01:32:33.214Z,982.69
2022-09-17T01:33:33.209Z,982.71
2022-09-17T01:34:33.194Z,982.66
2022-09-17T01:35:33.199Z,982.67
2022-09-17T01:36:33.189Z,982.68
2022-09-17T01:37:33.160Z,982.70
2022-09-17T01:38:33.180Z,982.64
2022-09-17T01:39:33.146Z,982.71
2022-09-17T01:40:33.440Z,982.71
2022-09-17T01:41:33.132Z,982.69
2022-09-17T01:42:33.137Z,982.72
2022-09-17T01:43:33.122Z,982.71
2022-09-17T01:44:33.137Z,982.72
2022-09-17T01:45:33.117Z,982.74
2022-09-17T01:46:33.162Z,982.73
2022-09-17T01:47:33.091Z,982.71
2022-09-17T01:48:33.151Z,982.72
2022-09-17T01:49:33.069Z,982.71
2022-09-17T01:50:33.229Z,982.76
2022-09-17T01:51:33.271Z,982.70
2022-09-17T01:52:33.371Z,982.73
2022-09-17T01:53:33.254Z,982.75
2022-09-17T01:54:33.365Z,982.75
2022-09-17T01:55:33.104Z,982.74
2022-09-17T01:56:33.376Z,982.78
2022-09-17T01:57:33.290Z,982.74
2022-09-17T01:58:33.230Z,982.73
2022-09-17T01:59:33.254Z,982.71
2022-09-17T02:00:33.233Z,982.74
2022-09-17T02:01:33.349Z,982.80
2022-09-17T02:02:32.939Z,982.77
2022-09-17T02:03:33.432Z,982.76
2022-09-17T02:04:33.187Z,982.76
2022-09-17T02:05:32.962Z,982.78
2022-09-17T02:06:33.154Z,982.81
2022-09-17T02:07:33.319Z,982.77
2022-09-17T02:08:33.335Z,982.78
2022-09-17T02:09:33.363Z,982.77
2022-09-17T02:10:33.456Z,982.81
2022-09-17T02:11:33.292Z,982.75
2022-09-17T02:12:33.174Z,982.75
2022-09-17T02:13:33.087Z,982.73
2022-09-17T02:14:33.279Z,982.73
2022-09-17T02:15:33.132Z,982.73
2022-09-17T02:16:32.944Z,982.77
2022-09-17T02:17:33.293Z,982.68
2022-09-17T02:18:33.106Z,982.73
2022-09-17T02:19:33.356Z,982.70
2022-09-17T02:20:32.815Z,982.73
2022-09-17T02:21:32.771Z,982.67
2022-09-17T02:22:32.983Z,982.67
2022-09-17T02:23:32.970Z,982.71
2022-09-17T02:24:33.228Z,982.66
2022-09-17T02:25:33.098Z,982.71
2022-09-17T02:26:33.050Z,982.68
2022-09-17T02:27:32.825Z,982.71
2022-09-17T02:28:33.115Z,982.73
2022-09-17T02:29:32.930Z,982.72
2022-09-17T02:30:33.018Z,982.71
2022-09-17T02:31:33.045Z,982.73
2022-09-17T02:32:32.876Z,982.72
2022-09-17T02:33:32.963Z,982.72
2022-09-17T02:34:32.730Z,982.70
2022-09-17T02:35:33.058Z,982.72
2022-09-17T02:36:32.974Z,982.76
2022-09-17T02:37:32.616Z,982.76
2022-09-17T02:38:32.631Z,982.76
2022-09-17T02:39:32.817Z,982.74
2022-09-17T02:40:32.862Z,982.76
2022-09-17T02:41:32.878Z,982.76
2022-09-17T02:42:32.792Z,982.73
2022-09-17T02:43:32.875Z,982.78
2022-09-17T02:44:32.746Z,982.79
2022-09-17T02:45:32.874Z,982.80
2022-09-17T02:46:32.980Z,982.80
2022-09-17T02:47:32.861Z,982.76
2022-09-17T02:48:32.881Z,982.80
2022-09-17T02:49:32.869Z,982.75
2022-09-17T02:50:32.905Z,982.79
2022-09-17T02:51:33.221Z,982.80
2022-09-17T02:52:32.739Z,982.75
2022-09-17T02:53:32.773Z,982.75
2022-09-17T02:54:32.574Z,982.75
2022-09-17T02:55:32.899Z,982.78
2022-09-17T02:56:32.452Z,982.77
2022-09-17T02:57:32.575Z,982.78
2022-09-17T02:58:32.822Z,982.76
2022-09-17T02:59:32.689Z,982.80
2022-09-17T03:00:32.939Z,982.78
2022-09-17T03:01:32.696Z,982.78
2022-09-17T03:02:32.624Z,982.79
2022-09-17T03:03:32.648Z,982.75
2022-09-17T03:04:32.475Z,982.71
2022-09-17T03:05:32.744Z,982.75
2022-09-17T03:06:32.591Z,982.70
2022-09-17T03:07:32.559Z,982.68
2022-09-17T03:08:32.700Z,982.72
2022-09-17T03:09:32.623Z,982.64
2022-09-17T03:10:32.773Z,982.65
2022-09-17T03:11:32.592Z,982.65
2022-09-17T03:12:32.590Z,982.64
2022-09-17T03:13:32.642Z,982.65
2022-09-17T03:14:32.297Z,982.65
2022-09-17T03:15:32.308Z,982.69
2022-09-17T03:16:32.626Z,982.67
2022-09-17T03:17:32.448Z,982.64
2022-09-17T03:18:32.624Z,982.72
2022-09-17T03:19:32.682Z,982.71
2022-09-17T03:20:32.446Z,982.74
2022-09-17T03:21:32.559Z,982.73
2022-09-17T03:22:32.596Z,982.73
2022-09-17T03:23:32.613Z,982.70
2022-09-17T03:24:32.537Z,982.70
2022-09-17T03:25:32.519Z,982.73
2022-09-17T03:26:32.385Z,982.73
2022-09-17T03:27:32.504Z,982.71
2022-09-17T03:28:32.262Z,982.69
2022-09-17T03:29:32.815Z,982.68
2022-09-17T03:30:32.564Z,982.67
2022-09-17T03:31:32.464Z,982.72
2022-09-17T03:32:32.615Z,982.71
2022-09-17T03:33:32.456Z,982.77
2022-09-17T03:34:32.570Z,982.72
2022-09-17T03:35:32.303Z,982.69
2022-09-17T03:36:32.080Z,982.69
2022-09-17T03:37:33.251Z,982.76
2022-09-17T03:38:32.225Z,982.71
2022-09-17T03:39:32.347Z,982.74
2022-09-17T03:40:32.344Z,982.70
2022-09-17T03:41:32.490Z,982.69
2022-09-17T03:42:32.407Z,982.69
2022-09-17T03:43:32.449Z,982.71
2022-09-17T03:44:32.345Z,982.78
2022-09-17T03:45:32.107Z,982.69
2022-09-17T03:46:32.052Z,982.74
2022-09-17T03:47:32.530Z,982.68
2022-09-17T03:48:32.242Z,982.68
2022-09-17T03:49:32.465Z,982.71
2022-09-17T03:50:32.157Z,982.75
2022-09-17T03:51:32.140Z,982.74
2022-09-17T03:52:32.298Z,982.75
2022-09-17T03:53:32.155Z,982.71
2022-09-17T03:54:32.288Z,982.73
2022-09-17T03:55:32.171Z,982.73
2022-09-17T03:56:32.340Z,982.71
2022-09-17T03:57:31.883Z,982.69
2022-09-17T03:58:32.188Z,982.72
2022-09-17T03:59:32.172Z,982.77
2022-09-17T04:00:32.176Z,982.71
2022-09-17T04:01:32.202Z,982.71
2022-09-17T04:02:32.570Z,982.72
2022-09-17T04:03:32.153Z,982.71
2022-09-17T04:04:32.210Z,982.75
2022-09-17T04:05:32.103Z,982.82
2022-09-17T04:06:32.231Z,982.82
2022-09-17T04:07:31.788Z,982.80
2022-09-17T04:08:32.055Z,982.84
2022-09-17T04:09:33.434Z,982.86
2022-09-17T04:10:32.084Z,982.81
2022-09-17T04:11:32.181Z,982.85
2022-09-17T04:12:32.143Z,982.82
2022-09-17T04:13:32.029Z,982.84
2022-09-17T04:14:31.822Z,982.84
2022-09-17T04:15:32.066Z,982.86
2022-09-17T04:16:32.203Z,982.85
2022-09-17T04:17:32.101Z,982.88
2022-09-17T04:18:32.046Z,982.88
2022-09-17T04:19:32.069Z,982.86
2022-09-17T04:20:32.026Z,982.84
2022-09-17T04:21:31.749Z,982.87
2022-09-17T04:22:31.842Z,982.87
2022-09-17T04:23:32.245Z,982.85
2022-09-17T04:24:31.879Z,982.87
2022-09-17T04:25:31.852Z,982.86
2022-09-17T04:26:32.027Z,982.92
2022-09-17T04:27:32.007Z,982.93
2022-09-17T04:28:31.592Z,982.85
2022-09-17T04:29:31.835Z,982.83
2022-09-17T04:30:31.929Z,982.88
2022-09-17T04:31:32.353Z,982.91
2022-09-17T04:32:31.747Z,982.87
2022-09-17T04:33:31.939Z,982.89
2022-09-17T04:34:32.006Z,982.81
2022-09-17T04:35:31.779Z,982.83
2022-09-17T04:36:31.941Z,982.85
2022-09-17T04:37:31.834Z,982.82
2022-09-17T04:38:32.025Z,982.83
2022-09-17T04:39:31.860Z,982.80
2022-09-17T04:40:31.867Z,982.78
2022-09-17T04:41:31.853Z,982.77
2022-09-17T04:42:31.640Z,982.71
2022-09-17T04:43:31.664Z,982.73
2022-09-17T04:44:31.660Z,982.76
2022-09-17T04:45:31.743Z,982.76
2022-09-17T04:46:31.580Z,982.78
2022-09-17T04:47:32.016Z,982.78
2022-09-17T04:48:31.578Z,982.83
2022-09-17T04:49:31.555Z,982.89
2022-09-17T04:50:31.612Z,982.84
2022-09-17T04:51:31.672Z,982.80
2022-09-17T04:52:31.657Z,982.82
2022-09-17T04:53:31.793Z,982.79
2022-09-17T04:54:31.645Z,982.86
2022-09-17T04:55:31.707Z,982.89
2022-09-17T04:56:31.529Z,982.89
2022-09-17T04:57:31.729Z,982.92
2022-09-17T04:58:31.537Z,982.88
2022-09-17T04:59:31.826Z,982.84
2022-09-17T05:00:31.371Z,982.87
2022-09-17T05:01:31.497Z,982.87
2022-09-17T05:02:31.713Z,982.86
2022-09-17T05:03:31.818Z,982.88
2022-09-17T05:04:31.473Z,982.91
2022-09-17T05:05:31.471Z,982.89
2022-09-17T05:06:31.422Z,982.86
2022-09-17T05:07:31.329Z,982.87
2022-09-17T05:08:31.811Z,982.91
2022-09-17T05:09:31.200Z,982.87
2022-09-17T05:10:31.335Z,982.93
2022-09-17T05:11:31.241Z,982.90
2022-09-17T05:12:34.345Z,982.94
2022-09-17T05:13:31.163Z,982.87
2022-09-17T05:14:31.208Z,982.94
2022-09-17T05:15:31.515Z,982.94
2022-09-17T05:16:31.567Z,983.03
2022-09-17T05:17:31.141Z,983.05
2022-09-17T05:18:31.128Z,983.08
2022-09-17T05:19:31.103Z,983.04
2022-09-17T05:20:31.787Z,983.07
2022-09-17T05:21:31.082Z,983.14
2022-09-17T05:22:31.087Z,983.05
2022-09-17T05:23:31.079Z,983.06
2022-09-17T05:24:31.173Z,983.08
2022-09-17T05:25:31.661Z,983.09
2022-09-17T05:26:31.046Z,983.06
2022-09-17T05:27:31.032Z,983.10
2022-09-17T05:28:31.014Z,983.17
2022-09-17T05:29:31.007Z,983.15
2022-09-17T05:30:31.144Z,983.16
2022-09-17T05:31:31.134Z,983.13
2022-09-17T05:32:30.981Z,983.22
2022-09-17T05:33:31.166Z,983.20
2022-09-17T05:34:30.953Z,983.22
2022-09-17T05:35:31.512Z,983.23
2022-09-17T05:36:30.993Z,983.27
2022-09-17T05:37:31.016Z,983.22
2022-09-17T05:38:30.929Z,983.23
2022-09-17T05:39:30.920Z,983.21
2022-09-17T05:40:31.578Z,983.22
2022-09-17T05:41:30.889Z,983.26
2022-09-17T05:42:30.878Z,983.25
2022-09-17T05:43:30.883Z,983.30
2022-09-17T05:44:30.876Z,983.30
2022-09-17T05:45:31.007Z,983.28
2022-09-17T05:46:30.882Z,983.28
2022-09-17T05:47:30.935Z,983.34
2022-09-17T05:48:30.825Z,983.32
2022-09-17T05:49:30.816Z,983.35
2022-09-17T05:50:31.050Z,983.38
2022-09-17T05:51:30.800Z,983.38
2022-09-17T05:52:30.810Z,983.39
2022-09-17T05:53:30.787Z,983.37
2022-09-17T05:54:30.768Z,983.38
2022-09-17T05:55:30.926Z,983.40
2022-09-17T05:56:30.872Z,983.42
2022-09-17T05:57:30.748Z,983.38
2022-09-17T05:58:30.878Z,983.42
2022-09-17T05:59:30.862Z,983.40
2022-09-17T06:00:30.894Z,983.43
2022-09-17T06:01:30.757Z,983.40
2022-09-17T06:02:30.855Z,983.45
2022-09-17T06:03:30.782Z,983.46
2022-09-17T06:04:34.700Z,983.45
2022-09-17T06:05:30.817Z,983.46
2022-09-17T06:06:30.651Z,983.52
2022-09-17T06:07:30.671Z,983.48
2022-09-17T06:08:30.637Z,983.51
2022-09-17T06:09:30.637Z,983.53
2022-09-17T06:10:30.794Z,983.56
2022-09-17T06:11:30.610Z,983.51
2022-09-17T06:12:30.732Z,983.55
2022-09-17T06:13:30.622Z,983.53
2022-09-17T06:14:30.580Z,983.54
2022-09-17T06:15:30.716Z,983.58
2022-09-17T06:16:30.644Z,983.64
2022-09-17T06:17:30.569Z,983.67
2022-09-17T06:18:30.652Z,983.62
2022-09-17T06:19:30.718Z,983.67
2022-09-17T06:20:30.705Z,983.69
2022-09-17T06:21:30.582Z,983.71
2022-09-17T06:22:30.525Z,983.73
2022-09-17T06:23:30.514Z,983.74
2022-09-17T06:24:30.595Z,983.75
2022-09-17T06:25:30.642Z,983.79
2022-09-17T06:26:30.478Z,983.79
2022-09-17T06:27:30.458Z,983.81
2022-09-17T06:28:30.563Z,983.83
2022-09-17T06:29:30.436Z,983.80
2022-09-17T06:30:30.625Z,983.75
2022-09-17T06:31:30.647Z,983.83
2022-09-17T06:32:30.412Z,983.87
2022-09-17T06:33:30.419Z,983.87
2022-09-17T06:34:30.472Z,983.82
2022-09-17T06:35:30.573Z,983.86
2022-09-17T06:36:30.385Z,983.83
2022-09-17T06:37:30.373Z,983.87
2022-09-17T06:38:30.461Z,983.86
2022-09-17T06:39:30.372Z,983.85
2022-09-17T06:40:30.564Z,983.79
2022-09-17T06:41:30.357Z,983.79
2022-09-17T06:42:30.343Z,983.77
2022-09-17T06:43:30.446Z,983.81
2022-09-17T06:44:30.432Z,983.84
2022-09-17T06:45:30.482Z,983.83
2022-09-17T06:46:30.333Z,983.82
2022-09-17T06:47:30.288Z,983.85
2022-09-17T06:48:30.367Z,983.84
2022-09-17T06:49:30.271Z,983.85
2022-09-17T06:50:30.440Z,983.85
2022-09-17T06:51:30.277Z,983.90
2022-09-17T06:52:30.249Z,983.91
2022-09-17T06:53:30.471Z,983.81
2022-09-17T06:54:30.224Z,983.88
2022-09-17T06:55:30.389Z,983.90
2022-09-17T06:56:30.435Z,983.86
2022-09-17T06:57:30.200Z,983.83
2022-09-17T06:58:30.196Z,983.83
2022-09-17T06:59:30.180Z,983.86
2022-09-17T07:00:30.444Z,983.90
2022-09-17T07:01:30.273Z,983.89
2022-09-17T07:02:30.226Z,983.84
2022-09-17T07:03:30.149Z,983.86
2022-09-17T07:04:30.152Z,983.83
2022-09-17T07:05:30.388Z,983.86
2022-09-17T07:06:30.132Z,983.83
2022-09-17T07:07:30.108Z,983.84
2022-09-17T07:08:30.137Z,983.90
2022-09-17T07:09:30.101Z,983.90
2022-09-17T07:10:30.258Z,983.81
2022-09-17T07:11:30.092Z,983.79
2022-09-17T07:12:30.086Z,983.81
2022-09-17T07:13:30.230Z,983.82
2022-09-17T07:14:30.198Z,983.87
2022-09-17T07:15:30.472Z,983.83
2022-09-17T07:16:30.251Z,983.84
2022-09-17T07:17:30.354Z,983.84
2022-09-17T07:19:30.571Z,983.77
2022-09-17T07:20:30.650Z,983.82
2022-09-17T07:21:30.457Z,983.79
2022-09-17T07:22:30.138Z,983.82
2022-09-17T07:23:29.974Z,983.79
2022-09-17T07:24:32.825Z,983.82
2022-09-17T07:25:30.583Z,983.88
2022-09-17T07:26:29.965Z,983.87
2022-09-17T07:27:30.096Z,983.85
2022-09-17T07:28:29.956Z,983.82
2022-09-17T07:29:29.925Z,983.92
2022-09-17T07:30:30.106Z,983.91
2022-09-17T07:31:29.956Z,983.89
2022-09-17T07:32:30.652Z,983.92
2022-09-17T07:33:29.911Z,983.94
2022-09-17T07:34:29.888Z,984.05
2022-09-17T07:35:30.154Z,984.01
2022-09-17T07:36:29.901Z,984.04
2022-09-17T07:37:29.938Z,984.09
2022-09-17T07:38:29.933Z,984.01
2022-09-17T07:39:29.872Z,984.03
2022-09-17T07:40:30.096Z,984.05
2022-09-17T07:41:29.880Z,984.04
2022-09-17T07:42:29.888Z,984.05
2022-09-17T07:43:29.853Z,983.96
2022-09-17T07:44:29.846Z,984.03
2022-09-17T07:45:30.831Z,984.03
2022-09-17T07:46:29.859Z,984.06
2022-09-17T07:47:29.833Z,984.06
2022-09-17T07:48:29.935Z,984.07
2022-09-17T07:49:29.840Z,984.12
2022-09-17T07:50:29.989Z,984.16
2022-09-17T07:51:29.808Z,984.14
2022-09-17T07:52:29.806Z,984.09
2022-09-17T07:53:29.843Z,984.20
2022-09-17T07:54:29.820Z,984.16
2022-09-17T07:55:29.884Z,984.16
2022-09-17T07:56:30.524Z,984.20
2022-09-17T07:57:29.879Z,984.18
2022-09-17T07:58:29.815Z,984.18
2022-09-17T07:59:29.848Z,984.18
2022-09-17T08:00:29.878Z,984.18
2022-09-17T08:01:29.890Z,984.28
2022-09-17T08:02:29.831Z,984.27
2022-09-17T08:03:29.829Z,984.19
2022-09-17T08:04:29.934Z,984.30
2022-09-17T08:05:29.784Z,984.26
2022-09-17T08:06:29.961Z,984.06
2022-09-17T08:07:29.740Z,984.29
2022-09-17T08:08:29.756Z,984.22
2022-09-17T08:09:29.845Z,984.42
2022-09-17T08:10:29.882Z,984.31
2022-09-17T08:11:54.469Z,984.24
2022-09-17T08:12:29.719Z,984.32
2022-09-17T08:13:29.712Z,984.34
2022-09-17T08:14:30.190Z,984.33
2022-09-17T08:15:29.851Z,984.37
2022-09-17T08:16:30.377Z,984.40
2022-09-17T08:17:29.788Z,984.36
2022-09-17T08:18:29.707Z,984.32
2022-09-17T08:19:29.668Z,984.32
2022-09-17T08:20:29.993Z,984.39
2022-09-17T08:21:29.760Z,984.35
2022-09-17T08:22:29.652Z,984.34
2022-09-17T08:23:29.814Z,984.40
2022-09-17T08:24:29.722Z,984.33
2022-09-17T08:25:29.796Z,984.41
2022-09-17T08:26:29.635Z,984.49
2022-09-17T08:27:29.648Z,984.51
2022-09-17T08:28:29.642Z,984.47
2022-09-17T08:29:33.244Z,984.54
2022-09-17T08:30:29.795Z,984.51
2022-09-17T08:31:29.894Z,984.56
2022-09-17T08:32:29.962Z,984.47
2022-09-17T08:33:29.643Z,984.47
2022-09-17T08:34:29.615Z,984.51
2022-09-17T08:35:29.818Z,984.59
2022-09-17T08:36:29.748Z,984.53
2022-09-17T08:37:29.687Z,984.55
2022-09-17T08:38:31.718Z,984.52
2022-09-17T08:39:29.670Z,984.52
2022-09-17T08:40:29.794Z,984.49
2022-09-17T08:41:29.662Z,984.50
2022-09-17T08:42:29.578Z,984.60
2022-09-17T08:43:29.622Z,984.56
2022-09-17T08:44:29.573Z,984.61
2022-09-17T08:45:29.631Z,984.54
2022-09-17T08:46:29.691Z,984.56
2022-09-17T08:47:29.577Z,984.59
2022-09-17T08:48:29.546Z,984.55
2022-09-17T08:49:29.637Z,984.57
2022-09-17T08:50:29.686Z,984.48
2022-09-17T08:51:29.524Z,984.64
2022-09-17T08:52:29.675Z,984.63
2022-09-17T08:53:29.527Z,984.64
2022-09-17T08:54:29.520Z,984.67
2022-09-17T08:55:29.702Z,984.60
2022-09-17T08:56:29.514Z,984.65
2022-09-17T08:57:29.526Z,984.58
2022-09-17T08:58:29.513Z,984.66
2022-09-17T08:59:29.691Z,984.61
2022-09-17T09:00:29.712Z,984.64
2022-09-17T09:01:29.563Z,984.55
2022-09-17T09:02:29.592Z,984.61
2022-09-17T09:03:29.472Z,984.61
2022-09-17T09:04:29.454Z,984.63
2022-09-17T09:05:29.615Z,984.60
2022-09-17T09:06:29.640Z,984.70
2022-09-17T09:07:29.430Z,984.58
2022-09-17T09:08:29.741Z,984.68
2022-09-17T09:09:29.413Z,984.69
2022-09-17T09:10:29.561Z,984.71
2022-09-17T09:11:29.408Z,984.67
2022-09-17T09:12:29.402Z,984.68
2022-09-17T09:13:29.385Z,984.76
2022-09-17T09:14:29.378Z,984.75
2022-09-17T09:15:29.520Z,984.78
2022-09-17T09:16:29.442Z,984.76
2022-09-17T09:17:29.483Z,984.75
2022-09-17T09:18:29.572Z,984.83
2022-09-17T09:19:29.660Z,984.84
2022-09-17T09:20:29.495Z,984.82
2022-09-17T09:21:29.337Z,984.81
2022-09-17T09:22:29.364Z,984.80
2022-09-17T09:23:29.349Z,984.89
2022-09-17T09:24:29.429Z,984.88
2022-09-17T09:25:29.479Z,984.86
2022-09-17T09:26:29.299Z,984.96
2022-09-17T09:27:29.331Z,984.88
2022-09-17T09:28:29.390Z,984.90
2022-09-17T09:29:29.338Z,984.89
2022-09-17T09:30:29.439Z,984.88
2022-09-17T09:31:29.303Z,984.82
2022-09-17T09:32:29.946Z,984.84
2022-09-17T09:33:29.278Z,984.90
2022-09-17T09:34:29.279Z,984.94
2022-09-17T09:35:29.360Z,984.79
2022-09-17T09:36:29.266Z,984.86
2022-09-17T09:37:29.425Z,984.81
2022-09-17T09:38:29.197Z,984.85
2022-09-17T09:39:32.242Z,984.80
2022-09-17T09:40:29.538Z,984.80
2022-09-17T09:41:29.194Z,984.86
2022-09-17T09:42:29.218Z,984.87
2022-09-17T09:43:46.377Z,984.84
2022-09-17T09:44:29.187Z,984.86
2022-09-17T09:45:29.237Z,984.81
2022-09-17T09:46:29.228Z,984.90
2022-09-17T09:47:29.509Z,984.87
2022-09-17T09:48:29.176Z,984.80
2022-09-17T09:49:29.308Z,984.81
2022-09-17T09:50:43.190Z,984.83
2022-09-17T09:51:29.122Z,984.95
2022-09-17T09:52:29.117Z,984.91
2022-09-17T09:53:29.108Z,984.91
2022-09-17T09:54:29.096Z,984.90
2022-09-17T09:55:29.143Z,984.95
2022-09-17T09:56:29.219Z,984.91
2022-09-17T09:57:29.080Z,984.95
2022-09-17T09:58:29.093Z,984.96
2022-09-17T09:59:29.083Z,985.02
2022-09-17T10:00:29.206Z,985.10
2022-09-17T10:01:29.178Z,985.00
2022-09-17T10:02:29.200Z,984.95
2022-09-17T10:03:29.048Z,984.92
2022-09-17T10:04:29.031Z,984.92
2022-09-17T10:05:29.193Z,984.96
2022-09-17T10:06:29.027Z,984.97
2022-09-17T10:07:29.041Z,985.03
2022-09-17T10:08:29.091Z,984.99
2022-09-17T10:09:29.350Z,984.99
2022-09-17T10:10:29.181Z,984.94
2022-09-17T10:11:29.196Z,984.97
2022-09-17T10:12:29.274Z,985.01
2022-09-17T10:13:29.015Z,984.95
2022-09-17T10:14:29.276Z,984.98
2022-09-17T10:15:29.162Z,984.97
2022-09-17T10:16:29.049Z,984.95
2022-09-17T10:17:29.211Z,984.90
2022-09-17T10:18:29.164Z,984.94
2022-09-17T10:19:29.086Z,984.87
2022-09-17T10:20:29.057Z,984.85
2022-09-17T10:21:28.967Z,984.82
2022-09-17T10:22:28.928Z,984.78
2022-09-17T10:23:28.898Z,984.87
2022-09-17T10:24:28.918Z,984.71
2022-09-17T10:25:29.002Z,984.69
2022-09-17T10:26:28.938Z,984.71
2022-09-17T10:27:28.884Z,984.73
2022-09-17T10:28:29.017Z,984.74
2022-09-17T10:29:28.871Z,984.80
2022-09-17T10:30:29.057Z,984.70
2022-09-17T10:31:28.929Z,984.70
2022-09-17T10:32:29.445Z,984.68
2022-09-17T10:33:28.844Z,984.66
2022-09-17T10:34:28.837Z,984.78
2022-09-17T10:35:29.005Z,984.78
2022-09-17T10:36:28.850Z,984.74
2022-09-17T10:37:28.855Z,984.67
2022-09-17T10:38:28.831Z,984.62
2022-09-17T10:39:28.930Z,984.74
2022-09-17T10:40:29.171Z,984.64
2022-09-17T10:41:28.877Z,984.57
2022-09-17T10:42:28.811Z,984.64
2022-09-17T10:43:28.775Z,984.68
2022-09-17T10:44:28.914Z,984.66
2022-09-17T10:45:29.136Z,984.65
2022-09-17T10:46:29.020Z,984.54
2022-09-17T10:47:28.851Z,984.68
2022-09-17T10:48:28.749Z,984.52
2022-09-17T10:49:28.746Z,984.66
2022-09-17T10:50:28.875Z,984.65
2022-09-17T10:51:28.730Z,984.56
2022-09-17T10:52:28.749Z,984.67
2022-09-17T10:53:28.723Z,984.76
2022-09-17T10:54:28.709Z,984.83
2022-09-17T10:55:28.850Z,984.86
2022-09-17T10:56:28.823Z,984.83
2022-09-17T10:57:28.705Z,984.89
2022-09-17T10:58:28.783Z,984.90
2022-09-17T10:59:28.734Z,984.82
2022-09-17T11:00:28.986Z,984.84
2022-09-17T11:01:28.734Z,984.91
2022-09-17T11:02:28.803Z,984.85
2022-09-17T11:03:28.656Z,984.83
2022-09-17T11:04:28.669Z,984.84
2022-09-17T11:05:28.814Z,984.80
2022-09-17T11:06:28.649Z,984.82
2022-09-17T11:07:28.659Z,984.83
2022-09-17T11:08:28.649Z,984.79
2022-09-17T11:09:28.618Z,984.81
2022-09-17T11:10:28.812Z,984.78
2022-09-17T11:11:28.617Z,984.75
2022-09-17T11:12:28.616Z,984.70
2022-09-17T11:13:28.622Z,984.71
2022-09-17T11:14:28.588Z,984.69
2022-09-17T11:15:28.656Z,984.73
2022-09-17T11:16:28.778Z,984.63
2022-09-17T11:17:28.836Z,984.65
2022-09-17T11:18:28.595Z,984.64
2022-09-17T11:19:28.568Z,984.61
2022-09-17T11:20:28.744Z,984.57
2022-09-17T11:21:28.589Z,984.59
2022-09-17T11:22:28.621Z,984.62
2022-09-17T11:23:28.534Z,984.59
2022-09-17T11:24:29.143Z,984.63
2022-09-17T11:25:28.876Z,984.63
2022-09-17T11:26:28.580Z,984.60
2022-09-17T11:27:28.528Z,984.58
2022-09-17T11:28:28.510Z,984.57
2022-09-17T11:29:28.517Z,984.48
2022-09-17T11:30:28.570Z,984.51
2022-09-17T11:31:29.005Z,984.46
2022-09-17T11:32:28.632Z,984.61
2022-09-17T11:33:28.933Z,984.48
2022-09-17T11:34:28.763Z,984.36
2022-09-17T11:35:29.069Z,984.45
2022-09-17T11:36:28.660Z,984.47
2022-09-17T11:37:28.826Z,984.44
2022-09-17T11:38:28.481Z,984.46
2022-09-17T11:39:28.651Z,984.43
2022-09-17T11:40:28.968Z,984.47
2022-09-17T11:41:28.770Z,984.41
2022-09-17T11:42:28.593Z,984.47
2022-09-17T11:43:28.642Z,984.46
2022-09-17T11:44:28.834Z,984.49
2022-09-17T11:45:28.665Z,984.44
2022-09-17T11:46:28.653Z,984.46
2022-09-17T11:47:28.574Z,984.52
2022-09-17T11:48:28.840Z,984.49
2022-09-17T11:49:28.454Z,984.47
2022-09-17T11:50:28.546Z,984.47
2022-09-17T11:51:28.598Z,984.50
2022-09-17T11:52:28.414Z,984.51
2022-09-17T11:53:28.408Z,984.47
2022-09-17T11:54:28.394Z,984.54
2022-09-17T11:55:28.527Z,984.53
2022-09-17T11:56:28.508Z,984.42
2022-09-17T11:57:28.353Z,984.54
2022-09-17T11:58:28.365Z,984.56
2022-09-17T11:59:28.538Z,984.52
2022-09-17T12:00:28.476Z,984.46
2022-09-17T12:01:28.321Z,984.49
2022-09-17T12:02:28.418Z,984.57
2022-09-17T12:03:28.367Z,984.56
2022-09-17T12:04:28.417Z,984.51
2022-09-17T12:05:28.655Z,984.47
2022-09-17T12:06:28.326Z,984.50
2022-09-17T12:07:28.314Z,984.49
2022-09-17T12:08:28.329Z,984.53
2022-09-17T12:09:28.266Z,984.54
2022-09-17T12:10:28.469Z,984.52
2022-09-17T12:11:28.274Z,984.54
2022-09-17T12:12:48.243Z,984.55
2022-09-17T12:13:28.306Z,984.49
2022-09-17T12:14:28.264Z,984.52
2022-09-17T12:15:28.396Z,984.45
2022-09-17T12:16:28.295Z,984.43
2022-09-17T12:17:28.464Z,984.43
2022-09-17T12:18:32.351Z,984.42
2022-09-17T12:19:28.230Z,984.42
2022-09-17T12:20:28.505Z,984.46
2022-09-17T12:21:28.219Z,984.38
2022-09-17T12:22:28.222Z,984.32
2022-09-17T12:23:28.200Z,984.29
2022-09-17T12:24:28.202Z,984.30
2022-09-17T12:25:28.921Z,984.34
2022-09-17T12:26:28.154Z,984.18
2022-09-17T12:27:28.200Z,984.19
2022-09-17T12:28:28.205Z,984.17
2022-09-17T12:29:28.161Z,984.17